sensor_id;sensor_type;location;lat;lon;timestamp;pressure;altitude;pressure_sealevel;temperature;humidity
55590;BME280;41452;42.780;23.116;2023-02-16T00:00:38;95571.13;;;-2.17;92.51
55590;BME280;41452;42.780;23.116;2023-02-16T00:03:04;95560.94;;;-2.19;93.20
55590;BME280;41452;42.780;23.116;2023-02-16T00:05:32;95566.59;;;-2.25;93.94
55590;BME280;41452;42.780;23.116;2023-02-16T00:07:58;95540.22;;;-2.50;94.00
55590;BME280;41452;42.780;23.116;2023-02-16T00:10:25;95573.34;;;-2.24;93.52
55590;BME280;41452;42.780;23.116;2023-02-16T00:12:52;95565.31;;;-2.42;93.96
55590;BME280;41452;42.780;23.116;2023-02-16T00:15:36;95539.28;;;-2.49;93.65
55590;BME280;41452;42.780;23.116;2023-02-16T00:18:02;95535.28;;;-2.53;93.30
55590;BME280;41452;42.780;23.116;2023-02-16T00:20:30;95557.72;;;-2.43;93.85
55590;BME280;41452;42.780;23.116;2023-02-16T00:22:55;95531.47;;;-2.58;92.76
55590;BME280;41452;42.780;23.116;2023-02-16T00:25:21;95565.91;;;-2.38;93.17
55590;BME280;41452;42.780;23.116;2023-02-16T00:27:46;95562.88;;;-2.43;92.73
55590;BME280;41452;42.780;23.116;2023-02-16T00:30:17;95563.59;;;-2.53;93.82
55590;BME280;41452;42.780;23.116;2023-02-16T00:32:43;95558.00;;;-2.58;94.35
55590;BME280;41452;42.780;23.116;2023-02-16T00:35:16;95561.13;;;-2.54;93.90
55590;BME280;41452;42.780;23.116;2023-02-16T00:37:42;95557.16;;;-2.47;93.72
55590;BME280;41452;42.780;23.116;2023-02-16T00:40:08;95556.56;;;-2.51;94.04
55590;BME280;41452;42.780;23.116;2023-02-16T00:42:35;95561.13;;;-2.54;94.40
55590;BME280;41452;42.780;23.116;2023-02-16T00:45:01;95557.28;;;-2.60;93.69
55590;BME280;41452;42.780;23.116;2023-02-16T00:47:40;95554.63;;;-2.70;93.69
55590;BME280;41452;42.780;23.116;2023-02-16T00:50:27;95553.00;;;-2.82;94.66
55590;BME280;41452;42.780;23.116;2023-02-16T00:52:53;95559.31;;;-2.75;94.57
55590;BME280;41452;42.780;23.116;2023-02-16T00:55:22;95564.47;;;-2.75;94.35
55590;BME280;41452;42.780;23.116;2023-02-16T01:00:28;95529.84;;;-2.93;93.32
55590;BME280;41452;42.780;23.116;2023-02-16T01:02:58;95556.28;;;-2.80;92.90
55590;BME280;41452;42.780;23.116;2023-02-16T01:05:24;95552.78;;;-2.79;93.42
55590;BME280;41452;42.780;23.116;2023-02-16T01:07:56;95557.34;;;-2.82;93.39
55590;BME280;41452;42.780;23.116;2023-02-16T01:10:40;95551.00;;;-2.90;93.04
55590;BME280;41452;42.780;23.116;2023-02-16T01:13:48;95556.88;;;-2.88;93.88
55590;BME280;41452;42.780;23.116;2023-02-16T01:16:21;95555.56;;;-2.82;92.33
55590;BME280;41452;42.780;23.116;2023-02-16T01:18:47;95481.41;;;-3.43;92.92
55590;BME280;41452;42.780;23.116;2023-02-16T01:21:12;95476.63;;;-3.48;92.77
55590;BME280;41452;42.780;23.116;2023-02-16T01:23:38;95537.34;;;-3.01;92.68
55590;BME280;41452;42.780;23.116;2023-02-16T01:26:05;95542.00;;;-2.95;93.22
55590;BME280;41452;42.780;23.116;2023-02-16T01:28:34;95532.00;;;-2.98;93.19
55590;BME280;41452;42.780;23.116;2023-02-16T01:31:00;95535.25;;;-2.96;92.52
55590;BME280;41452;42.780;23.116;2023-02-16T01:33:26;95520.88;;;-2.99;92.36
55590;BME280;41452;42.780;23.116;2023-02-16T01:35:52;95526.84;;;-2.98;92.64
55590;BME280;41452;42.780;23.116;2023-02-16T01:38:22;95523.13;;;-3.06;92.60
55590;BME280;41452;42.780;23.116;2023-02-16T01:44:02;95514.69;;;-3.19;92.82
55590;BME280;41452;42.780;23.116;2023-02-16T01:46:50;95523.09;;;-3.17;92.92
55590;BME280;41452;42.780;23.116;2023-02-16T01:49:19;95516.34;;;-3.18;93.11
55590;BME280;41452;42.780;23.116;2023-02-16T01:51:52;95455.72;;;-3.66;92.70
55590;BME280;41452;42.780;23.116;2023-02-16T01:54:40;95513.31;;;-3.23;92.99
55590;BME280;41452;42.780;23.116;2023-02-16T01:59:59;95515.38;;;-3.39;93.28
55590;BME280;41452;42.780;23.116;2023-02-16T02:02:33;95511.75;;;-3.59;93.34
55590;BME280;41452;42.780;23.116;2023-02-16T02:05:06;95464.31;;;-3.89;93.04
55590;BME280;41452;42.780;23.116;2023-02-16T02:13:39;95511.03;;;-3.50;93.68
55590;BME280;41452;42.780;23.116;2023-02-16T02:16:07;95513.03;;;-3.54;93.55
55590;BME280;41452;42.780;23.116;2023-02-16T02:18:34;95508.72;;;-3.53;93.27
55590;BME280;41452;42.780;23.116;2023-02-16T02:29:19;95505.91;;;-3.50;93.84
55590;BME280;41452;42.780;23.116;2023-02-16T02:32:12;95503.44;;;-3.52;94.08
55590;BME280;41452;42.780;23.116;2023-02-16T02:45:38;95508.25;;;-3.58;92.40
55590;BME280;41452;42.780;23.116;2023-02-16T02:48:05;95513.50;;;-3.60;93.32
55590;BME280;41452;42.780;23.116;2023-02-16T02:50:38;95513.88;;;-3.53;92.52
55590;BME280;41452;42.780;23.116;2023-02-16T02:53:12;95511.63;;;-3.69;93.18
55590;BME280;41452;42.780;23.116;2023-02-16T02:55:43;95515.56;;;-3.76;93.39
55590;BME280;41452;42.780;23.116;2023-02-16T02:58:31;95519.47;;;-3.95;94.48
55590;BME280;41452;42.780;23.116;2023-02-16T03:01:37;95514.03;;;-3.90;93.53
55590;BME280;41452;42.780;23.116;2023-02-16T03:04:05;95477.91;;;-4.11;92.89
55590;BME280;41452;42.780;23.116;2023-02-16T03:09:17;95519.88;;;-3.77;92.20
55590;BME280;41452;42.780;23.116;2023-02-16T03:11:44;95516.38;;;-3.76;92.73
55590;BME280;41452;42.780;23.116;2023-02-16T03:17:00;95512.28;;;-3.78;92.08
55590;BME280;41452;42.780;23.116;2023-02-16T03:19:49;95507.63;;;-3.73;92.53
55590;BME280;41452;42.780;23.116;2023-02-16T03:22:34;95509.59;;;-3.88;92.36
55590;BME280;41452;42.780;23.116;2023-02-16T03:25:21;95511.28;;;-4.11;93.83
55590;BME280;41452;42.780;23.116;2023-02-16T03:28:09;95501.03;;;-4.00;93.32
55590;BME280;41452;42.780;23.116;2023-02-16T03:30:55;95489.56;;;-4.18;93.04
55590;BME280;41452;42.780;23.116;2023-02-16T03:33:22;95444.88;;;-4.51;93.67
55590;BME280;41452;42.780;23.116;2023-02-16T03:35:49;95515.34;;;-4.09;93.52
55590;BME280;41452;42.780;23.116;2023-02-16T03:38:15;95507.50;;;-4.18;93.61
55590;BME280;41452;42.780;23.116;2023-02-16T03:40:41;95488.97;;;-4.22;92.70
55590;BME280;41452;42.780;23.116;2023-02-16T03:43:08;95495.50;;;-4.18;92.53
55590;BME280;41452;42.780;23.116;2023-02-16T03:45:36;95445.22;;;-4.80;93.44
55590;BME280;41452;42.780;23.116;2023-02-16T03:48:03;95505.13;;;-4.33;94.26
55590;BME280;41452;42.780;23.116;2023-02-16T03:50:29;95507.84;;;-4.23;94.38
55590;BME280;41452;42.780;23.116;2023-02-16T03:52:55;95495.50;;;-4.18;93.67
55590;BME280;41452;42.780;23.116;2023-02-16T03:55:39;95511.25;;;-4.23;94.02
55590;BME280;41452;42.780;23.116;2023-02-16T03:58:06;95508.31;;;-4.18;93.14
55590;BME280;41452;42.780;23.116;2023-02-16T04:00:33;95491.25;;;-4.30;93.80
55590;BME280;41452;42.780;23.116;2023-02-16T04:02:59;95493.59;;;-4.27;93.62
55590;BME280;41452;42.780;23.116;2023-02-16T04:05:25;95491.44;;;-4.09;93.04
55590;BME280;41452;42.780;23.116;2023-02-16T04:07:51;95429.41;;;-4.50;94.35
55590;BME280;41452;42.780;23.116;2023-02-16T04:10:16;95490.16;;;-4.15;95.00
55590;BME280;41452;42.780;23.116;2023-02-16T04:12:42;95491.19;;;-4.17;94.10
55590;BME280;41452;42.780;23.116;2023-02-16T04:15:12;95464.56;;;-4.28;94.44
55590;BME280;41452;42.780;23.116;2023-02-16T04:17:38;95490.47;;;-4.20;94.25
55590;BME280;41452;42.780;23.116;2023-02-16T04:20:05;95496.75;;;-4.24;94.80
55590;BME280;41452;42.780;23.116;2023-02-16T04:22:31;95498.53;;;-4.24;95.78
55590;BME280;41452;42.780;23.116;2023-02-16T04:24:56;95499.28;;;-4.35;95.25
55590;BME280;41452;42.780;23.116;2023-02-16T04:27:22;95501.41;;;-4.29;95.74
55590;BME280;41452;42.780;23.116;2023-02-16T04:29:47;95491.81;;;-4.38;96.43
55590;BME280;41452;42.780;23.116;2023-02-16T04:32:12;95498.94;;;-4.30;96.26
55590;BME280;41452;42.780;23.116;2023-02-16T04:34:38;95502.09;;;-4.27;95.97
55590;BME280;41452;42.780;23.116;2023-02-16T04:37:03;95499.66;;;-4.28;96.16
55590;BME280;41452;42.780;23.116;2023-02-16T04:39:30;95470.44;;;-4.50;95.83
55590;BME280;41452;42.780;23.116;2023-02-16T04:41:55;95499.50;;;-4.38;96.16
55590;BME280;41452;42.780;23.116;2023-02-16T04:44:21;95501.09;;;-4.24;94.85
55590;BME280;41452;42.780;23.116;2023-02-16T04:46:46;95503.91;;;-4.16;94.44
55590;BME280;41452;42.780;23.116;2023-02-16T04:49:12;95511.59;;;-4.16;94.58
55590;BME280;41452;42.780;23.116;2023-02-16T04:51:37;95470.13;;;-4.34;94.87
55590;BME280;41452;42.780;23.116;2023-02-16T04:54:04;95506.56;;;-4.17;94.37
55590;BME280;41452;42.780;23.116;2023-02-16T04:56:30;95453.69;;;-4.67;94.01
55590;BME280;41452;42.780;23.116;2023-02-16T04:58:55;95516.22;;;-4.21;94.20
55590;BME280;41452;42.780;23.116;2023-02-16T05:01:22;95509.91;;;-4.28;93.71
55590;BME280;41452;42.780;23.116;2023-02-16T05:03:48;95516.75;;;-4.40;93.43
55590;BME280;41452;42.780;23.116;2023-02-16T05:06:13;95519.09;;;-4.37;93.08
55590;BME280;41452;42.780;23.116;2023-02-16T05:08:39;95511.88;;;-4.32;92.69
55590;BME280;41452;42.780;23.116;2023-02-16T05:11:04;95522.00;;;-4.42;93.74
55590;BME280;41452;42.780;23.116;2023-02-16T05:13:48;95518.34;;;-4.26;92.43
55590;BME280;41452;42.780;23.116;2023-02-16T05:16:32;95521.81;;;-4.27;92.54
55590;BME280;41452;42.780;23.116;2023-02-16T05:18:58;95485.00;;;-4.50;92.05
55590;BME280;41452;42.780;23.116;2023-02-16T05:21:23;95519.84;;;-4.48;92.65
55590;BME280;41452;42.780;23.116;2023-02-16T05:23:56;95462.19;;;-4.90;92.33
55590;BME280;41452;42.780;23.116;2023-02-16T05:26:21;95526.53;;;-4.45;92.69
55590;BME280;41452;42.780;23.116;2023-02-16T05:28:46;95523.84;;;-4.44;92.36
55590;BME280;41452;42.780;23.116;2023-02-16T05:31:12;95524.44;;;-4.40;92.38
55590;BME280;41452;42.780;23.116;2023-02-16T05:33:37;95524.38;;;-4.51;92.18
55590;BME280;41452;42.780;23.116;2023-02-16T05:36:02;95527.88;;;-4.52;92.04
55590;BME280;41452;42.780;23.116;2023-02-16T05:38:28;95511.81;;;-4.67;92.22
55590;BME280;41452;42.780;23.116;2023-02-16T05:40:54;95538.19;;;-4.65;92.78
55590;BME280;41452;42.780;23.116;2023-02-16T05:43:20;95534.88;;;-4.54;91.90
55590;BME280;41452;42.780;23.116;2023-02-16T05:45:45;95537.84;;;-4.61;92.97
55590;BME280;41452;42.780;23.116;2023-02-16T05:48:10;95535.84;;;-4.68;92.37
55590;BME280;41452;42.780;23.116;2023-02-16T05:50:36;95549.59;;;-4.82;93.98
55590;BME280;41452;42.780;23.116;2023-02-16T05:53:01;95548.19;;;-4.86;93.98
55590;BME280;41452;42.780;23.116;2023-02-16T05:55:27;95552.56;;;-4.75;94.09
55590;BME280;41452;42.780;23.116;2023-02-16T05:57:52;95545.47;;;-4.72;93.90
55590;BME280;41452;42.780;23.116;2023-02-16T06:00:18;95555.16;;;-4.51;93.56
55590;BME280;41452;42.780;23.116;2023-02-16T06:02:44;95554.13;;;-4.49;93.58
55590;BME280;41452;42.780;23.116;2023-02-16T06:05:09;95560.63;;;-4.56;93.98
55590;BME280;41452;42.780;23.116;2023-02-16T06:07:35;95562.06;;;-4.65;94.92
55590;BME280;41452;42.780;23.116;2023-02-16T06:10:00;95564.19;;;-4.59;95.95
55590;BME280;41452;42.780;23.116;2023-02-16T06:12:26;95555.13;;;-4.38;96.34
55590;BME280;41452;42.780;23.116;2023-02-16T06:14:51;95554.06;;;-4.36;95.81
55590;BME280;41452;42.780;23.116;2023-02-16T06:17:16;95569.09;;;-4.18;96.06
55590;BME280;41452;42.780;23.116;2023-02-16T06:19:42;95564.44;;;-4.13;95.76
55590;BME280;41452;42.780;23.116;2023-02-16T06:22:07;95576.00;;;-4.08;95.69
55590;BME280;41452;42.780;23.116;2023-02-16T06:24:32;95578.25;;;-4.03;97.42
55590;BME280;41452;42.780;23.116;2023-02-16T06:26:58;95578.06;;;-3.89;98.84
55590;BME280;41452;42.780;23.116;2023-02-16T06:29:23;95572.00;;;-3.88;98.60
55590;BME280;41452;42.780;23.116;2023-02-16T06:31:48;95575.06;;;-3.83;98.36
55590;BME280;41452;42.780;23.116;2023-02-16T06:34:14;95571.81;;;-3.73;99.71
55590;BME280;41452;42.780;23.116;2023-02-16T06:36:39;95566.38;;;-3.57;100.00
55590;BME280;41452;42.780;23.116;2023-02-16T06:39:05;95570.00;;;-3.49;100.00
55590;BME280;41452;42.780;23.116;2023-02-16T06:41:30;95570.38;;;-3.42;100.00
55590;BME280;41452;42.780;23.116;2023-02-16T06:44:00;95551.31;;;-3.51;100.00
55590;BME280;41452;42.780;23.116;2023-02-16T06:46:26;95486.59;;;-3.90;100.00
55590;BME280;41452;42.780;23.116;2023-02-16T06:48:52;95577.06;;;-3.28;100.00
55590;BME280;41452;42.780;23.116;2023-02-16T06:51:18;95572.19;;;-3.09;100.00
55590;BME280;41452;42.780;23.116;2023-02-16T06:53:45;95561.19;;;-3.11;100.00
55590;BME280;41452;42.780;23.116;2023-02-16T06:56:10;95528.72;;;-3.23;100.00
55590;BME280;41452;42.780;23.116;2023-02-16T06:58:35;95562.72;;;-2.85;100.00
55590;BME280;41452;42.780;23.116;2023-02-16T07:01:01;95558.84;;;-2.80;100.00
55590;BME280;41452;42.780;23.116;2023-02-16T07:03:26;95560.13;;;-2.74;100.00
55590;BME280;41452;42.780;23.116;2023-02-16T07:05:51;95551.34;;;-2.60;100.00
55590;BME280;41452;42.780;23.116;2023-02-16T07:08:17;95553.66;;;-2.46;100.00
55590;BME280;41452;42.780;23.116;2023-02-16T07:10:44;95556.22;;;-2.46;100.00
55590;BME280;41452;42.780;23.116;2023-02-16T07:13:10;95553.31;;;-2.41;100.00
55590;BME280;41452;42.780;23.116;2023-02-16T07:15:36;95548.28;;;-2.54;100.00
55590;BME280;41452;42.780;23.116;2023-02-16T07:18:01;95539.13;;;-2.36;100.00
55590;BME280;41452;42.780;23.116;2023-02-16T07:20:27;95510.94;;;-2.37;100.00
55590;BME280;41452;42.780;23.116;2023-02-16T07:22:52;95552.13;;;-2.05;100.00
55590;BME280;41452;42.780;23.116;2023-02-16T07:25:18;95552.47;;;-1.98;100.00
55590;BME280;41452;42.780;23.116;2023-02-16T07:27:43;95548.81;;;-1.96;100.00
55590;BME280;41452;42.780;23.116;2023-02-16T07:30:09;95551.06;;;-1.81;100.00
55590;BME280;41452;42.780;23.116;2023-02-16T07:32:35;95548.94;;;-1.76;100.00
55590;BME280;41452;42.780;23.116;2023-02-16T07:35:01;95553.63;;;-1.70;100.00
55590;BME280;41452;42.780;23.116;2023-02-16T07:37:26;95541.34;;;-1.57;100.00
55590;BME280;41452;42.780;23.116;2023-02-16T07:39:52;95543.59;;;-1.42;100.00
55590;BME280;41452;42.780;23.116;2023-02-16T07:42:18;95542.44;;;-1.38;100.00
55590;BME280;41452;42.780;23.116;2023-02-16T07:44:44;95543.81;;;-1.34;100.00
55590;BME280;41452;42.780;23.116;2023-02-16T07:47:10;95550.28;;;-1.19;100.00
55590;BME280;41452;42.780;23.116;2023-02-16T07:49:37;95513.31;;;-1.29;100.00
55590;BME280;41452;42.780;23.116;2023-02-16T07:52:03;95544.44;;;-1.21;100.00
55590;BME280;41452;42.780;23.116;2023-02-16T07:54:30;95543.47;;;-1.20;100.00
55590;BME280;41452;42.780;23.116;2023-02-16T07:56:56;95543.59;;;-1.42;100.00
55590;BME280;41452;42.780;23.116;2023-02-16T07:59:21;95545.44;;;-1.33;100.00
55590;BME280;41452;42.780;23.116;2023-02-16T08:01:46;95490.94;;;-1.49;100.00
55590;BME280;41452;42.780;23.116;2023-02-16T08:04:12;95549.81;;;-0.93;100.00
55590;BME280;41452;42.780;23.116;2023-02-16T08:06:38;95552.47;;;-0.83;100.00
55590;BME280;41452;42.780;23.116;2023-02-16T08:09:03;95513.66;;;-1.12;100.00
55590;BME280;41452;42.780;23.116;2023-02-16T08:11:29;95552.59;;;-0.75;100.00
55590;BME280;41452;42.780;23.116;2023-02-16T08:13:54;95554.56;;;-0.67;100.00
55590;BME280;41452;42.780;23.116;2023-02-16T08:16:24;95496.63;;;-0.94;100.00
55590;BME280;41452;42.780;23.116;2023-02-16T08:18:50;95560.16;;;-0.52;100.00
55590;BME280;41452;42.780;23.116;2023-02-16T08:21:18;95560.03;;;-0.41;100.00
55590;BME280;41452;42.780;23.116;2023-02-16T08:23:58;95567.41;;;-0.27;100.00
55590;BME280;41452;42.780;23.116;2023-02-16T08:26:27;95564.44;;;-0.22;100.00
55590;BME280;41452;42.780;23.116;2023-02-16T08:28:55;95561.03;;;-0.23;100.00
55590;BME280;41452;42.780;23.116;2023-02-16T08:31:23;95566.59;;;-0.27;100.00
55590;BME280;41452;42.780;23.116;2023-02-16T08:33:51;95560.50;;;-0.16;100.00
55590;BME280;41452;42.780;23.116;2023-02-16T08:36:19;95560.38;;;0.05;100.00
55590;BME280;41452;42.780;23.116;2023-02-16T08:38:45;95564.75;;;0.04;100.00
55590;BME280;41452;42.780;23.116;2023-02-16T08:41:14;95559.97;;;0.19;100.00
55590;BME280;41452;42.780;23.116;2023-02-16T08:43:40;95543.25;;;0.23;100.00
55590;BME280;41452;42.780;23.116;2023-02-16T08:46:05;95561.44;;;0.51;100.00
55590;BME280;41452;42.780;23.116;2023-02-16T08:48:32;95562.00;;;0.64;100.00
55590;BME280;41452;42.780;23.116;2023-02-16T08:51:00;95553.78;;;0.69;100.00
55590;BME280;41452;42.780;23.116;2023-02-16T08:53:26;95554.19;;;0.84;100.00
55590;BME280;41452;42.780;23.116;2023-02-16T08:55:56;95549.66;;;0.95;100.00
55590;BME280;41452;42.780;23.116;2023-02-16T08:58:22;95549.31;;;1.08;100.00
55590;BME280;41452;42.780;23.116;2023-02-16T09:00:47;95481.13;;;0.72;100.00
55590;BME280;41452;42.780;23.116;2023-02-16T09:03:14;95520.38;;;0.95;100.00
55590;BME280;41452;42.780;23.116;2023-02-16T09:05:40;95550.50;;;1.24;100.00
55590;BME280;41452;42.780;23.116;2023-02-16T09:08:06;95548.97;;;1.31;100.00
55590;BME280;41452;42.780;23.116;2023-02-16T09:10:31;95554.34;;;1.47;100.00
55590;BME280;41452;42.780;23.116;2023-02-16T09:12:57;95546.44;;;1.49;100.00
55590;BME280;41452;42.780;23.116;2023-02-16T09:15:22;95535.03;;;1.42;100.00
55590;BME280;41452;42.780;23.116;2023-02-16T09:17:48;95546.84;;;1.72;100.00
55590;BME280;41452;42.780;23.116;2023-02-16T09:20:13;95546.44;;;1.95;100.00
55590;BME280;41452;42.780;23.116;2023-02-16T09:22:43;95547.56;;;1.92;99.30
55590;BME280;41452;42.780;23.116;2023-02-16T09:25:08;95538.50;;;1.96;99.71
55590;BME280;41452;42.780;23.116;2023-02-16T09:27:35;95539.19;;;2.16;99.02
55590;BME280;41452;42.780;23.116;2023-02-16T09:30:01;95458.63;;;1.56;99.28
55590;BME280;41452;42.780;23.116;2023-02-16T09:32:28;95537.38;;;2.17;99.83
55590;BME280;41452;42.780;23.116;2023-02-16T09:34:53;95533.03;;;1.99;98.52
55590;BME280;41452;42.780;23.116;2023-02-16T09:37:19;95538.88;;;2.19;100.00
55590;BME280;41452;42.780;23.116;2023-02-16T09:39:44;95527.53;;;2.38;98.91
55590;BME280;41452;42.780;23.116;2023-02-16T09:45:16;95527.03;;;2.61;97.69
55590;BME280;41452;42.780;23.116;2023-02-16T09:47:46;95518.47;;;2.60;97.94
55590;BME280;41452;42.780;23.116;2023-02-16T09:50:16;95512.00;;;2.64;97.27
55590;BME280;41452;42.780;23.116;2023-02-16T09:52:51;95512.63;;;2.58;97.71
55590;BME280;41452;42.780;23.116;2023-02-16T09:55:18;95515.16;;;2.76;96.38
55590;BME280;41452;42.780;23.116;2023-02-16T10:03:16;95504.88;;;3.27;95.16
55590;BME280;41452;42.780;23.116;2023-02-16T10:06:00;95510.09;;;3.35;95.09
55590;BME280;41452;42.780;23.116;2023-02-16T10:08:33;95503.28;;;3.34;93.71
55590;BME280;41452;42.780;23.116;2023-02-16T10:19:47;95483.59;;;3.91;92.27
55590;BME280;41452;42.780;23.116;2023-02-16T10:22:22;95414.22;;;3.50;92.98
55590;BME280;41452;42.780;23.116;2023-02-16T10:27:27;95481.00;;;4.15;91.57
55590;BME280;41452;42.780;23.116;2023-02-16T10:29:57;95470.47;;;4.25;90.30
55590;BME280;41452;42.780;23.116;2023-02-16T10:32:27;95459.22;;;4.33;89.92
55590;BME280;41452;42.780;23.116;2023-02-16T10:35:15;95468.97;;;4.55;89.86
55590;BME280;41452;42.780;23.116;2023-02-16T10:40:32;95455.59;;;4.75;88.46
55590;BME280;41452;42.780;23.116;2023-02-16T10:48:14;95443.31;;;5.00;86.95
55590;BME280;41452;42.780;23.116;2023-02-16T10:53:51;95442.03;;;5.36;85.21
55590;BME280;41452;42.780;23.116;2023-02-16T10:59:44;95434.75;;;5.54;84.86
55590;BME280;41452;42.780;23.116;2023-02-16T11:04:43;95419.53;;;5.66;82.40
55590;BME280;41452;42.780;23.116;2023-02-16T11:07:14;95427.34;;;5.97;81.88
55590;BME280;41452;42.780;23.116;2023-02-16T11:09:41;95406.34;;;5.90;82.97
55590;BME280;41452;42.780;23.116;2023-02-16T11:14:50;95417.41;;;6.16;83.20
55590;BME280;41452;42.780;23.116;2023-02-16T11:17:17;95403.34;;;6.40;79.41
55590;BME280;41452;42.780;23.116;2023-02-16T11:19:53;95374.59;;;6.25;79.23
55590;BME280;41452;42.780;23.116;2023-02-16T11:22:35;95405.25;;;6.61;79.03
55590;BME280;41452;42.780;23.116;2023-02-16T11:25:22;95401.84;;;6.75;78.72
55590;BME280;41452;42.780;23.116;2023-02-16T11:27:55;95400.47;;;6.79;77.72
55590;BME280;41452;42.780;23.116;2023-02-16T11:32:54;95392.63;;;6.94;75.85
55590;BME280;41452;42.780;23.116;2023-02-16T11:35:20;95393.97;;;7.05;74.25
55590;BME280;41452;42.780;23.116;2023-02-16T11:37:46;95393.69;;;7.15;72.56
55590;BME280;41452;42.780;23.116;2023-02-16T11:40:21;95387.91;;;7.19;72.92
55590;BME280;41452;42.780;23.116;2023-02-16T11:42:50;95381.22;;;7.32;70.60
55590;BME280;41452;42.780;23.116;2023-02-16T11:45:33;95387.19;;;7.26;71.95
55590;BME280;41452;42.780;23.116;2023-02-16T11:48:03;95376.06;;;7.38;71.61
55590;BME280;41452;42.780;23.116;2023-02-16T11:50:33;95367.59;;;7.36;71.06
55590;BME280;41452;42.780;23.116;2023-02-16T11:55:35;95375.53;;;7.65;72.37
55590;BME280;41452;42.780;23.116;2023-02-16T11:58:20;95373.25;;;7.76;71.24
55590;BME280;41452;42.780;23.116;2023-02-16T12:06:41;95358.09;;;7.93;68.03
55590;BME280;41452;42.780;23.116;2023-02-16T12:12:08;95299.41;;;8.03;65.67
55590;BME280;41452;42.780;23.116;2023-02-16T12:14:49;95345.69;;;8.30;65.89
55590;BME280;41452;42.780;23.116;2023-02-16T12:20:39;95342.34;;;8.71;64.62
55590;BME280;41452;42.780;23.116;2023-02-16T12:25:41;95342.59;;;8.83;63.26
55590;BME280;41452;42.780;23.116;2023-02-16T12:31:11;95336.41;;;8.98;61.37
55590;BME280;41452;42.780;23.116;2023-02-16T12:34:15;95327.56;;;9.05;64.46
55590;BME280;41452;42.780;23.116;2023-02-16T12:39:45;95326.44;;;9.41;60.50
55590;BME280;41452;42.780;23.116;2023-02-16T12:45:05;95321.75;;;9.17;61.59
55590;BME280;41452;42.780;23.116;2023-02-16T12:47:40;95315.34;;;9.39;62.27
55590;BME280;41452;42.780;23.116;2023-02-16T12:50:20;95313.56;;;9.46;60.39
55590;BME280;41452;42.780;23.116;2023-02-16T12:52:52;95309.72;;;9.56;59.95
55590;BME280;41452;42.780;23.116;2023-02-16T12:57:56;95314.19;;;9.62;59.63
55590;BME280;41452;42.780;23.116;2023-02-16T13:00:38;95309.38;;;9.72;58.61
55590;BME280;41452;42.780;23.116;2023-02-16T13:05:46;95279.09;;;9.89;58.08
55590;BME280;41452;42.780;23.116;2023-02-16T13:08:23;95297.44;;;10.03;57.04
55590;BME280;41452;42.780;23.116;2023-02-16T13:11:16;95294.78;;;10.23;57.74
55590;BME280;41452;42.780;23.116;2023-02-16T13:13:46;95299.28;;;10.02;55.87
55590;BME280;41452;42.780;23.116;2023-02-16T13:16:27;95296.03;;;10.07;55.45
55590;BME280;41452;42.780;23.116;2023-02-16T13:18:57;95291.59;;;9.94;57.16
55590;BME280;41452;42.780;23.116;2023-02-16T13:24:07;95287.56;;;9.78;55.76
55590;BME280;41452;42.780;23.116;2023-02-16T13:26:48;95283.34;;;10.04;55.44
55590;BME280;41452;42.780;23.116;2023-02-16T13:32:47;95279.06;;;10.43;56.12
55590;BME280;41452;42.780;23.116;2023-02-16T13:44:20;95269.16;;;10.90;55.07
55590;BME280;41452;42.780;23.116;2023-02-16T13:46:50;95274.84;;;10.87;51.49
55590;BME280;41452;42.780;23.116;2023-02-16T13:49:32;95271.03;;;10.83;52.79
55590;BME280;41452;42.780;23.116;2023-02-16T13:52:03;95261.75;;;10.80;53.82
55590;BME280;41452;42.780;23.116;2023-02-16T13:54:32;95269.97;;;10.91;54.97
55590;BME280;41452;42.780;23.116;2023-02-16T13:56:59;95233.94;;;10.59;52.49
55590;BME280;41452;42.780;23.116;2023-02-16T14:01:53;95263.09;;;10.96;54.54
55590;BME280;41452;42.780;23.116;2023-02-16T14:09:47;95260.81;;;11.38;51.65
55590;BME280;41452;42.780;23.116;2023-02-16T14:12:24;95256.22;;;11.34;51.31
55590;BME280;41452;42.780;23.116;2023-02-16T14:33:05;95250.63;;;11.49;51.10
55590;BME280;41452;42.780;23.116;2023-02-16T14:38:22;95250.81;;;11.22;50.70
55590;BME280;41452;42.780;23.116;2023-02-16T14:40:58;95260.56;;;11.15;50.83
55590;BME280;41452;42.780;23.116;2023-02-16T14:43:44;95265.06;;;11.08;50.47
55590;BME280;41452;42.780;23.116;2023-02-16T14:57:37;95258.72;;;11.15;50.19
55590;BME280;41452;42.780;23.116;2023-02-16T15:03:03;95259.19;;;11.06;50.79
55590;BME280;41452;42.780;23.116;2023-02-16T15:05:35;95252.50;;;11.10;50.50
55590;BME280;41452;42.780;23.116;2023-02-16T15:10:36;95252.38;;;10.98;50.49
55590;BME280;41452;42.780;23.116;2023-02-16T15:13:02;95246.97;;;10.86;50.41
55590;BME280;41452;42.780;23.116;2023-02-16T15:15:44;95253.41;;;10.32;52.75
55590;BME280;41452;42.780;23.116;2023-02-16T15:18:16;95211.50;;;9.92;53.14
55590;BME280;41452;42.780;23.116;2023-02-16T15:20:44;95248.41;;;9.97;53.51
55590;BME280;41452;42.780;23.116;2023-02-16T15:23:23;95248.22;;;9.78;54.28
55590;BME280;41452;42.780;23.116;2023-02-16T15:26:00;95248.22;;;9.58;55.49
55590;BME280;41452;42.780;23.116;2023-02-16T15:28:34;95251.06;;;9.43;55.58
55590;BME280;41452;42.780;23.116;2023-02-16T15:31:09;95252.03;;;9.29;55.94
55590;BME280;41452;42.780;23.116;2023-02-16T15:33:51;95258.84;;;9.17;55.78
55590;BME280;41452;42.780;23.116;2023-02-16T15:36:18;95262.06;;;9.05;56.36
55590;BME280;41452;42.780;23.116;2023-02-16T15:38:55;95262.84;;;8.92;56.62
55590;BME280;41452;42.780;23.116;2023-02-16T15:41:37;95251.50;;;8.79;56.80
55590;BME280;41452;42.780;23.116;2023-02-16T15:44:04;95255.09;;;8.64;56.86
55590;BME280;41452;42.780;23.116;2023-02-16T15:46:38;95256.41;;;8.47;57.62
55590;BME280;41452;42.780;23.116;2023-02-16T15:49:27;95257.94;;;8.34;57.54
55590;BME280;41452;42.780;23.116;2023-02-16T15:51:56;95207.91;;;7.81;57.78
55590;BME280;41452;42.780;23.116;2023-02-16T15:54:30;95259.53;;;8.00;58.02
55590;BME280;41452;42.780;23.116;2023-02-16T15:56:58;95227.91;;;7.60;58.35